createdAt,value
2023-02-02T00:00:21.233Z,1.40
2023-02-02T00:02:47.629Z,1.90
2023-02-02T00:05:14.044Z,1.70
2023-02-02T00:07:40.478Z,1.00
2023-02-02T00:10:07.299Z,1.60
2023-02-02T00:12:33.721Z,1.77
2023-02-02T00:15:00.163Z,1.58
2023-02-02T00:17:26.610Z,1.40
2023-02-02T00:19:53.020Z,1.85
2023-02-02T00:22:19.490Z,1.45
2023-02-02T00:24:45.958Z,1.40
2023-02-02T00:27:12.338Z,2.00
2023-02-02T00:29:39.773Z,1.97
2023-02-02T00:32:06.260Z,1.23
2023-02-02T00:34:32.632Z,2.05
2023-02-02T00:36:59.053Z,1.90
2023-02-02T00:39:26.185Z,1.80
2023-02-02T00:41:53.231Z,1.80
2023-02-02T00:44:38.232Z,1.63
2023-02-02T00:47:05.183Z,1.30
2023-02-02T00:49:31.850Z,1.30
2023-02-02T00:51:59.053Z,2.42
2023-02-02T00:54:26.502Z,1.70
2023-02-02T00:56:52.989Z,1.35
2023-02-02T00:59:19.404Z,1.80
2023-02-02T01:01:46.359Z,1.92
2023-02-02T01:04:12.729Z,1.35
2023-02-02T01:06:39.109Z,1.57
2023-02-02T01:09:05.463Z,1.60
2023-02-02T01:11:31.928Z,1.80
2023-02-02T01:13:58.396Z,1.83
2023-02-02T01:16:24.997Z,1.52
2023-02-02T01:18:51.865Z,1.50
2023-02-02T01:21:18.687Z,1.35
2023-02-02T01:23:45.126Z,1.58
2023-02-02T01:26:13.074Z,1.00
2023-02-02T01:28:40.198Z,1.27
2023-02-02T01:31:09.037Z,0.80
2023-02-02T01:33:35.665Z,0.88
2023-02-02T01:36:06.315Z,0.55
2023-02-02T01:38:33.512Z,0.70
2023-02-02T01:41:00.262Z,0.63
2023-02-02T01:43:52.902Z,0.40
2023-02-02T01:46:21.754Z,0.40
2023-02-02T01:48:56.962Z,0.45
2023-02-02T01:51:27.758Z,1.00
2023-02-02T01:53:56.264Z,0.47
2023-02-02T01:56:29.040Z,0.70
2023-02-02T01:58:57.431Z,0.50
2023-02-02T02:01:24.588Z,1.10
2023-02-02T02:03:51.144Z,0.75
2023-02-02T02:06:19.496Z,0.47
2023-02-02T02:08:57.858Z,0.47
2023-02-02T02:11:24.856Z,0.95
2023-02-02T02:14:32.749Z,0.60
2023-02-02T02:17:25.260Z,0.80
2023-02-02T02:20:42.496Z,0.55
2023-02-02T02:23:49.198Z,0.73
2023-02-02T02:26:54.391Z,1.45
2023-02-02T02:29:44.751Z,1.10
2023-02-02T02:32:43.577Z,1.17
2023-02-02T02:35:23.653Z,1.73
2023-02-02T02:37:52.904Z,0.90
2023-02-02T02:40:32.407Z,1.23
2023-02-02T02:43:04.242Z,0.98
2023-02-02T02:45:32.173Z,1.20
2023-02-02T02:47:58.921Z,1.13
2023-02-02T02:50:25.585Z,1.47
2023-02-02T02:53:03.297Z,1.55
2023-02-02T02:55:41.608Z,1.33
2023-02-02T02:58:18.748Z,2.20
2023-02-02T03:00:57.453Z,1.67
2023-02-02T03:03:41.876Z,1.50
2023-02-02T03:06:19.637Z,2.22
2023-02-02T03:08:52.679Z,1.88
2023-02-02T03:11:20.525Z,2.05
2023-02-02T03:13:47.361Z,1.85
2023-02-02T03:16:15.616Z,1.47
2023-02-02T03:18:42.466Z,1.90
2023-02-02T03:21:09.004Z,1.65
2023-02-02T03:23:35.449Z,2.03
2023-02-02T03:26:02.013Z,1.55
2023-02-02T03:28:29.601Z,2.10
2023-02-02T03:30:59.366Z,2.08
2023-02-02T03:33:25.881Z,1.70
2023-02-02T03:35:52.651Z,2.08
2023-02-02T03:38:19.054Z,1.90
2023-02-02T03:40:45.432Z,1.53
2023-02-02T03:43:11.861Z,1.35
2023-02-02T03:45:40.655Z,1.55
2023-02-02T03:48:07.513Z,1.63
2023-02-02T03:50:34.029Z,1.98
2023-02-02T03:53:00.524Z,1.80
2023-02-02T03:55:26.959Z,2.10
2023-02-02T03:57:53.553Z,2.25
2023-02-02T04:00:20.351Z,1.20
2023-02-02T04:02:46.780Z,1.75
2023-02-02T04:05:13.171Z,1.50
2023-02-02T04:07:39.579Z,1.63
2023-02-02T04:10:06.299Z,1.92
2023-02-02T04:12:32.694Z,1.33
2023-02-02T04:14:59.145Z,1.55
2023-02-02T04:17:25.551Z,1.47
2023-02-02T04:19:57.923Z,1.40
2023-02-02T04:22:25.736Z,1.45
2023-02-02T04:24:52.146Z,1.58
2023-02-02T04:27:18.988Z,1.95
2023-02-02T04:29:45.488Z,1.90
2023-02-02T04:32:11.892Z,1.10
2023-02-02T04:34:38.313Z,1.55
2023-02-02T04:37:04.712Z,1.42
2023-02-02T04:39:31.167Z,1.63
2023-02-02T04:41:57.938Z,1.80
2023-02-02T04:44:24.494Z,1.08
2023-02-02T04:46:50.938Z,1.50
2023-02-02T04:49:17.556Z,1.73
2023-02-02T04:51:44.116Z,1.45
2023-02-02T04:54:10.557Z,1.67
2023-02-02T04:56:36.987Z,1.25
2023-02-02T04:59:03.628Z,1.17
2023-02-02T05:01:30.772Z,1.70
2023-02-02T05:03:57.437Z,1.83
2023-02-02T05:06:23.813Z,2.63
2023-02-02T05:08:50.576Z,1.63
2023-02-02T05:11:19.808Z,1.73
2023-02-02T05:13:48.381Z,1.90
2023-02-02T05:16:15.316Z,1.63
2023-02-02T05:18:42.443Z,2.53
2023-02-02T05:21:09.175Z,2.22
2023-02-02T05:23:35.706Z,1.40
2023-02-02T05:26:02.093Z,1.98
2023-02-02T05:28:29.332Z,2.20
2023-02-02T05:30:55.876Z,1.73
2023-02-02T05:33:22.331Z,1.17
2023-02-02T05:35:49.326Z,1.67
2023-02-02T05:38:16.372Z,1.83
2023-02-02T05:40:42.874Z,1.48
2023-02-02T05:43:09.274Z,1.30
2023-02-02T05:45:35.676Z,1.48
2023-02-02T05:48:02.109Z,2.75
2023-02-02T05:50:28.493Z,1.70
2023-02-02T05:52:54.896Z,1.27
2023-02-02T05:55:21.373Z,0.83
2023-02-02T05:57:47.778Z,1.08
2023-02-02T06:00:14.477Z,1.42
2023-02-02T06:02:40.906Z,1.65
2023-02-02T06:05:07.805Z,1.50
2023-02-02T06:07:34.174Z,1.30
2023-02-02T06:10:00.563Z,0.80
2023-02-02T06:12:26.986Z,1.42
2023-02-02T06:14:53.396Z,1.10
2023-02-02T06:17:19.847Z,1.67
2023-02-02T06:19:46.256Z,1.00
2023-02-02T06:22:12.670Z,1.02
2023-02-02T06:24:39.012Z,1.95
2023-02-02T06:27:05.391Z,1.50
2023-02-02T06:29:31.809Z,1.13
2023-02-02T06:31:58.400Z,1.40
2023-02-02T06:34:24.848Z,1.75
2023-02-02T06:36:51.277Z,1.08
2023-02-02T06:39:17.693Z,1.73
2023-02-02T06:41:48.160Z,2.00
2023-02-02T06:44:15.333Z,1.20
2023-02-02T06:46:42.366Z,1.55
2023-02-02T06:49:09.127Z,1.75
2023-02-02T06:51:35.601Z,1.42
2023-02-02T06:54:03.830Z,1.75
2023-02-02T06:56:30.329Z,1.70
2023-02-02T06:58:56.759Z,1.25
2023-02-02T07:01:23.229Z,1.15
2023-02-02T07:03:51.089Z,1.63
2023-02-02T07:06:20.040Z,1.55
2023-02-02T07:09:01.958Z,1.17
2023-02-02T07:11:29.700Z,1.60
2023-02-02T07:13:56.241Z,1.55
2023-02-02T07:16:22.662Z,2.08
2023-02-02T07:18:49.436Z,1.50
2023-02-02T07:21:23.737Z,1.40
2023-02-02T07:23:51.289Z,1.70
2023-02-02T07:26:19.419Z,1.55
2023-02-02T07:28:46.947Z,1.52
2023-02-02T07:31:19.689Z,1.80
2023-02-02T07:33:47.350Z,2.13
2023-02-02T07:36:16.716Z,1.90
2023-02-02T07:38:44.099Z,2.30
2023-02-02T07:41:10.634Z,1.50
2023-02-02T07:43:37.063Z,1.70
2023-02-02T07:46:07.986Z,1.77
2023-02-02T07:48:34.745Z,2.30
2023-02-02T07:51:02.594Z,1.52
2023-02-02T07:53:29.581Z,1.50
2023-02-02T07:56:15.850Z,1.80
2023-02-02T07:58:43.028Z,1.80
2023-02-02T08:01:11.555Z,1.58
2023-02-02T08:03:38.863Z,1.50
2023-02-02T08:06:15.030Z,1.55
2023-02-02T08:08:41.782Z,1.80
2023-02-02T08:11:10.292Z,1.20
2023-02-02T08:13:37.259Z,2.05
2023-02-02T08:16:04.142Z,1.98
2023-02-02T08:18:30.601Z,1.15
2023-02-02T08:21:01.067Z,1.52
2023-02-02T08:23:28.114Z,1.53
2023-02-02T08:25:55.192Z,1.77
2023-02-02T08:28:21.514Z,1.35
2023-02-02T08:30:47.923Z,1.40
2023-02-02T08:33:14.288Z,1.90
2023-02-02T08:35:44.068Z,1.13
2023-02-02T08:38:10.511Z,1.58
2023-02-02T08:40:36.975Z,1.70
2023-02-02T08:43:03.704Z,1.42
2023-02-02T08:46:01.633Z,1.02
2023-02-02T08:48:19.541Z,1.20
2023-02-02T08:50:55.450Z,1.50
2023-02-02T08:53:22.874Z,1.30
2023-02-02T08:55:57.299Z,1.92
2023-02-02T08:58:23.715Z,2.15
2023-02-02T09:00:50.161Z,1.23
2023-02-02T09:03:16.938Z,1.25
2023-02-02T09:05:44.189Z,1.38
2023-02-02T09:08:10.692Z,2.97
2023-02-02T09:10:38.055Z,1.15
2023-02-02T09:13:04.808Z,1.10
2023-02-02T09:15:31.258Z,1.30
2023-02-02T09:17:57.598Z,1.55
2023-02-02T09:20:24.066Z,1.13
2023-02-02T09:22:50.491Z,1.20
2023-02-02T09:25:17.099Z,1.37
2023-02-02T09:27:43.574Z,1.13
2023-02-02T09:30:10.511Z,1.00
2023-02-02T09:32:36.884Z,1.20
2023-02-02T09:35:03.456Z,1.52
2023-02-02T09:37:29.980Z,1.50
2023-02-02T09:39:56.369Z,0.90
2023-02-02T09:42:57.195Z,2.10
2023-02-02T09:45:49.709Z,1.25
2023-02-02T09:48:29.809Z,1.50
2023-02-02T09:51:01.111Z,1.80
2023-02-02T09:53:36.606Z,1.42
2023-02-02T09:56:11.335Z,1.00
2023-02-02T09:58:54.660Z,1.27
2023-02-02T10:01:33.939Z,1.20
2023-02-02T10:04:21.413Z,1.50
2023-02-02T10:06:53.822Z,1.85
2023-02-02T10:09:36.694Z,1.83
2023-02-02T10:12:24.192Z,1.73
2023-02-02T10:15:30.461Z,1.30
2023-02-02T10:18:23.124Z,1.43
2023-02-02T10:21:17.508Z,1.15
2023-02-02T10:23:45.649Z,1.13
2023-02-02T10:26:36.604Z,1.65
2023-02-02T10:29:19.252Z,1.30
2023-02-02T10:32:22.534Z,1.30
2023-02-02T10:35:18.610Z,1.38
2023-02-02T10:38:08.065Z,1.50
2023-02-02T10:40:37.082Z,1.88
2023-02-02T10:43:45.759Z,1.27
2023-02-02T10:46:23.633Z,1.60
2023-02-02T10:48:52.771Z,1.40
2023-02-02T10:51:28.573Z,1.30
2023-02-02T10:53:58.781Z,1.08
2023-02-02T10:56:51.991Z,1.40
2023-02-02T10:59:29.882Z,1.10
2023-02-02T11:01:56.383Z,1.63
2023-02-02T11:04:41.757Z,1.70
2023-02-02T11:07:08.260Z,1.30
2023-02-02T11:09:41.008Z,1.38
2023-02-02T11:12:19.771Z,1.70
2023-02-02T11:14:52.374Z,1.63
2023-02-02T11:17:21.825Z,1.52
2023-02-02T11:19:49.794Z,1.55
2023-02-02T11:22:26.128Z,1.40
2023-02-02T11:24:53.592Z,1.87
2023-02-02T11:27:26.373Z,1.55
2023-02-02T11:29:55.487Z,1.40
2023-02-02T11:32:31.028Z,1.10
2023-02-02T11:35:06.639Z,2.28
2023-02-02T11:37:35.690Z,1.00
2023-02-02T11:40:20.913Z,1.65
2023-02-02T11:42:48.371Z,1.00
2023-02-02T11:45:25.198Z,0.82
2023-02-02T11:47:51.821Z,1.35
2023-02-02T11:50:25.300Z,1.13
2023-02-02T11:52:52.216Z,1.20
2023-02-02T11:55:26.125Z,1.00
2023-02-02T11:58:18.378Z,1.20
2023-02-02T12:00:54.922Z,1.13
2023-02-02T12:03:27.833Z,0.70
2023-02-02T12:05:54.250Z,0.90
2023-02-02T12:08:21.006Z,1.10
2023-02-02T12:11:01.295Z,1.08
2023-02-02T12:13:40.550Z,0.90
2023-02-02T12:16:34.950Z,1.00
2023-02-02T12:19:17.145Z,0.95
2023-02-02T12:21:52.578Z,1.23
2023-02-02T12:24:29.476Z,0.90
2023-02-02T12:27:04.681Z,0.88
2023-02-02T12:30:03.741Z,1.00
2023-02-02T12:32:38.985Z,1.30
2023-02-02T12:35:14.991Z,1.00
2023-02-02T12:37:44.258Z,1.23
2023-02-02T12:40:42.476Z,1.15
2023-02-02T12:43:08.838Z,0.80
2023-02-02T12:46:04.882Z,1.55
2023-02-02T12:49:00.013Z,0.90
2023-02-02T12:51:47.646Z,0.95
2023-02-02T12:54:48.451Z,1.10
2023-02-02T12:57:28.469Z,1.03
2023-02-02T12:59:57.621Z,0.68
2023-02-02T13:02:42.223Z,0.88
2023-02-02T13:05:21.603Z,1.15
2023-02-02T13:08:04.966Z,1.77
2023-02-02T13:10:40.636Z,1.10
2023-02-02T13:13:16.768Z,2.38
2023-02-02T13:15:47.293Z,0.90
2023-02-02T13:18:16.493Z,1.30
2023-02-02T13:20:47.357Z,1.73
2023-02-02T13:23:18.397Z,1.00
2023-02-02T13:25:58.069Z,1.30
2023-02-02T13:28:46.471Z,0.80
2023-02-02T13:31:24.778Z,1.13
2023-02-02T13:34:22.800Z,0.68
2023-02-02T13:37:02.525Z,0.67
2023-02-02T13:39:36.228Z,0.90
2023-02-02T13:42:05.117Z,0.88
2023-02-02T13:44:43.709Z,1.02
2023-02-02T13:47:34.891Z,0.63
2023-02-02T13:50:07.580Z,0.90
2023-02-02T13:53:29.617Z,0.68
2023-02-02T13:56:27.120Z,0.77
2023-02-02T13:59:20.999Z,0.60
2023-02-02T14:01:50.002Z,0.70
2023-02-02T14:04:29.078Z,0.80
2023-02-02T14:07:05.094Z,0.60
2023-02-02T14:09:34.441Z,0.57
2023-02-02T14:12:08.676Z,0.45
2023-02-02T14:14:38.788Z,0.40
2023-02-02T14:17:34.444Z,0.30
2023-02-02T14:20:02.433Z,0.20
2023-02-02T14:22:41.261Z,0.40
2023-02-02T14:25:33.293Z,0.28
2023-02-02T14:28:00.768Z,0.30
2023-02-02T14:30:30.162Z,0.30
2023-02-02T14:33:22.291Z,0.30
2023-02-02T14:35:49.704Z,0.60
2023-02-02T14:38:22.077Z,0.40
2023-02-02T14:41:38.342Z,0.40
2023-02-02T14:44:06.241Z,0.30
2023-02-02T14:46:36.226Z,0.30
2023-02-02T14:49:02.602Z,0.32
2023-02-02T14:51:32.507Z,0.40
2023-02-02T14:54:02.515Z,0.20
2023-02-02T14:56:54.397Z,0.30
2023-02-02T14:59:37.320Z,0.30
2023-02-02T15:02:20.386Z,0.30
2023-02-02T15:04:49.401Z,0.30
2023-02-02T15:07:37.196Z,0.45
2023-02-02T15:10:04.174Z,0.50
2023-02-02T15:12:39.812Z,0.70
2023-02-02T15:15:19.117Z,0.98
2023-02-02T15:17:53.799Z,0.65
2023-02-02T15:20:26.224Z,1.00
2023-02-02T15:22:58.194Z,0.83
2023-02-02T15:25:39.902Z,1.05
2023-02-02T15:28:46.484Z,1.15
2023-02-02T15:31:25.129Z,1.20
2023-02-02T15:33:55.399Z,1.35
2023-02-02T15:36:26.193Z,1.57
2023-02-02T15:38:56.368Z,1.77
2023-02-02T15:41:27.925Z,1.33
2023-02-02T15:43:54.274Z,1.60
2023-02-02T15:46:26.163Z,1.90
2023-02-02T15:49:33.713Z,1.67
2023-02-02T15:52:10.034Z,1.73
2023-02-02T15:54:39.834Z,2.00
2023-02-02T15:57:31.145Z,1.80
2023-02-02T15:59:59.178Z,1.65
2023-02-02T16:02:35.736Z,1.50
2023-02-02T16:05:02.309Z,1.52
2023-02-02T16:07:31.852Z,1.85
2023-02-02T16:10:04.245Z,1.45
2023-02-02T16:12:31.003Z,1.80
2023-02-02T16:14:57.548Z,1.60
2023-02-02T16:17:29.674Z,1.95
2023-02-02T16:20:15.850Z,2.17
2023-02-02T16:22:45.161Z,2.10
2023-02-02T16:25:17.012Z,2.10
2023-02-02T16:27:47.142Z,1.70
2023-02-02T16:30:28.064Z,2.30
2023-02-02T16:32:54.697Z,2.03
2023-02-02T16:35:37.593Z,2.28
2023-02-02T16:38:31.439Z,2.40
2023-02-02T16:41:09.614Z,2.47
2023-02-02T16:43:43.339Z,2.75
2023-02-02T16:46:12.679Z,2.67
2023-02-02T16:48:42.541Z,2.63
2023-02-02T16:51:15.118Z,2.60
2023-02-02T16:53:44.855Z,2.33
2023-02-02T16:56:28.899Z,2.10
2023-02-02T16:58:58.076Z,2.97
2023-02-02T17:01:40.737Z,3.00
2023-02-02T17:04:17.245Z,2.95
2023-02-02T17:06:52.455Z,2.47
2023-02-02T17:09:36.383Z,2.40
2023-02-02T17:12:35.336Z,2.70
2023-02-02T17:15:29.022Z,2.28
2023-02-02T17:17:55.975Z,2.58
2023-02-02T17:20:23.002Z,2.67
2023-02-02T17:22:53.220Z,2.88
2023-02-02T17:25:41.855Z,2.72
2023-02-02T17:28:17.741Z,2.33
2023-02-02T17:30:47.239Z,2.55
2023-02-02T17:33:17.890Z,2.80
2023-02-02T17:35:55.636Z,3.00
2023-02-02T17:38:24.556Z,2.50
2023-02-02T17:40:51.568Z,2.97
2023-02-02T17:43:18.043Z,2.60
2023-02-02T17:45:44.493Z,2.57
2023-02-02T17:48:14.448Z,2.53
2023-02-02T17:50:41.915Z,2.95
2023-02-02T17:53:13.178Z,2.95
2023-02-02T17:55:42.007Z,3.60
2023-02-02T17:58:10.462Z,2.80
2023-02-02T18:00:38.511Z,2.88
2023-02-02T18:03:14.148Z,3.08
2023-02-02T18:05:43.224Z,2.72
2023-02-02T18:08:12.063Z,2.95
2023-02-02T18:10:38.821Z,3.13
2023-02-02T18:13:05.862Z,3.58
2023-02-02T18:15:32.383Z,3.58
2023-02-02T18:17:58.898Z,3.33
2023-02-02T18:20:25.288Z,3.58
2023-02-02T18:22:51.990Z,3.53
2023-02-02T18:25:18.444Z,3.50
2023-02-02T18:27:45.106Z,3.22
2023-02-02T18:30:13.595Z,3.70
2023-02-02T18:32:41.498Z,2.92
2023-02-02T18:35:10.497Z,2.80
2023-02-02T18:37:37.899Z,3.28
2023-02-02T18:40:05.237Z,2.90
2023-02-02T18:42:33.060Z,2.95
2023-02-02T18:45:00.425Z,3.33
2023-02-02T18:47:27.630Z,3.43
2023-02-02T18:49:54.062Z,3.30
2023-02-02T18:52:20.801Z,2.70
2023-02-02T18:54:47.591Z,2.97
2023-02-02T18:57:14.495Z,3.10
2023-02-02T18:59:41.533Z,3.17
2023-02-02T19:02:12.646Z,3.33
2023-02-02T19:04:38.985Z,3.70
2023-02-02T19:07:23.890Z,3.45
2023-02-02T19:09:50.242Z,3.78
2023-02-02T19:12:16.646Z,2.60
2023-02-02T19:14:43.220Z,3.22
2023-02-02T19:17:12.501Z,3.63
2023-02-02T19:19:40.499Z,3.38
2023-02-02T19:22:17.244Z,3.17
2023-02-02T19:24:43.699Z,3.00
2023-02-02T19:27:21.522Z,3.55
2023-02-02T19:29:53.681Z,3.33
2023-02-02T19:32:22.923Z,3.40
2023-02-02T19:34:52.403Z,3.35
2023-02-02T19:37:27.881Z,3.50
2023-02-02T19:40:15.555Z,3.20
2023-02-02T19:42:51.328Z,2.97
2023-02-02T19:45:28.267Z,2.97
2023-02-02T19:48:00.156Z,3.17
2023-02-02T19:50:29.683Z,3.40
2023-02-02T19:52:56.333Z,3.42
2023-02-02T19:55:28.529Z,3.70
2023-02-02T19:58:01.109Z,3.05
2023-02-02T20:00:31.212Z,3.33
2023-02-02T20:02:59.066Z,2.80
2023-02-02T20:05:32.456Z,2.92
2023-02-02T20:08:14.476Z,3.35
2023-02-02T20:10:43.481Z,3.22
2023-02-02T20:13:23.524Z,2.92
2023-02-02T20:15:51.945Z,3.20
2023-02-02T20:18:26.712Z,2.92
2023-02-02T20:20:56.929Z,3.55
2023-02-02T20:23:29.610Z,2.95
2023-02-02T20:25:57.463Z,3.00
2023-02-02T20:28:37.941Z,2.90
2023-02-02T20:31:05.407Z,3.47
2023-02-02T20:33:33.139Z,3.00
2023-02-02T20:36:02.483Z,2.83
2023-02-02T20:38:38.075Z,2.65
2023-02-02T20:41:05.789Z,2.80
2023-02-02T20:43:32.193Z,2.38
2023-02-02T20:45:58.586Z,2.40
2023-02-02T20:48:25.624Z,2.80
2023-02-02T20:50:52.032Z,2.92
2023-02-02T20:53:18.386Z,2.30
2023-02-02T20:55:44.908Z,2.15
2023-02-02T20:58:11.683Z,2.00
2023-02-02T21:00:38.934Z,2.35
2023-02-02T21:03:05.293Z,2.22
2023-02-02T21:05:31.667Z,2.30
2023-02-02T21:07:58.012Z,2.30
2023-02-02T21:10:26.240Z,2.00
2023-02-02T21:12:52.867Z,2.38
2023-02-02T21:15:19.312Z,1.95
2023-02-02T21:17:45.810Z,2.40
2023-02-02T21:20:13.567Z,2.55
2023-02-02T21:22:40.046Z,2.22
2023-02-02T21:25:06.853Z,1.77
2023-02-02T21:27:33.189Z,1.60
2023-02-02T21:29:59.563Z,1.90
2023-02-02T21:32:25.889Z,2.13
2023-02-02T21:34:52.241Z,2.20
2023-02-02T21:37:18.588Z,2.20
2023-02-02T21:39:49.479Z,2.20
2023-02-02T21:42:18.441Z,1.80
2023-02-02T21:44:49.563Z,2.97
2023-02-02T21:47:21.829Z,2.08
2023-02-02T21:49:48.357Z,2.38
2023-02-02T21:52:17.263Z,1.85
2023-02-02T21:54:44.338Z,1.90
2023-02-02T21:57:35.918Z,1.92
2023-02-02T22:00:22.410Z,2.10
2023-02-02T22:02:50.999Z,1.40
2023-02-02T22:05:21.830Z,1.83
2023-02-02T22:07:50.245Z,1.50
2023-02-02T22:10:30.391Z,1.38
2023-02-02T22:12:56.932Z,1.33
2023-02-02T22:15:27.255Z,1.52
2023-02-02T22:17:53.647Z,1.70
2023-02-02T22:20:34.550Z,1.40
2023-02-02T22:23:02.122Z,1.20
2023-02-02T22:25:34.319Z,1.10
2023-02-02T22:28:16.659Z,1.30
2023-02-02T22:30:43.336Z,0.98
2023-02-02T22:33:12.332Z,1.00
2023-02-02T22:35:39.386Z,1.20
2023-02-02T22:38:06.345Z,1.10
2023-02-02T22:40:32.678Z,1.15
2023-02-02T22:43:01.276Z,1.15
2023-02-02T22:45:28.237Z,1.23
2023-02-02T22:47:54.807Z,1.50
2023-02-02T22:50:26.996Z,1.20
2023-02-02T22:52:53.966Z,1.42
2023-02-02T22:55:20.700Z,1.42
2023-02-02T22:57:47.242Z,1.40
2023-02-02T23:00:16.717Z,1.48
2023-02-02T23:02:43.277Z,1.67
2023-02-02T23:05:12.456Z,1.95
2023-02-02T23:07:39.519Z,1.67
2023-02-02T23:10:07.665Z,1.63
2023-02-02T23:12:34.586Z,1.90
2023-02-02T23:15:00.913Z,2.53
2023-02-02T23:17:27.268Z,1.92
2023-02-02T23:19:53.654Z,1.75
2023-02-02T23:22:20.036Z,1.50
2023-02-02T23:24:46.405Z,1.80
2023-02-02T23:27:13.012Z,2.20
2023-02-02T23:29:39.722Z,1.65
2023-02-02T23:32:07.068Z,1.80
2023-02-02T23:34:33.656Z,1.20
2023-02-02T23:37:00.010Z,1.92
2023-02-02T23:39:26.335Z,2.35
2023-02-02T23:41:52.680Z,2.30
2023-02-02T23:44:19.008Z,1.67
2023-02-02T23:46:45.553Z,1.70
2023-02-02T23:49:11.957Z,1.40
2023-02-02T23:51:38.688Z,1.55
2023-02-02T23:54:05.380Z,1.50
2023-02-02T23:56:31.971Z,1.20
2023-02-02T23:58:58.337Z,1.33
